sensor_id;sensor_type;location;lat;lon;timestamp;pressure;altitude;pressure_sealevel;temperature
67758;BMP180;54562;47.620;18.786;2023-02-26T00:00:37;97239.40;;;2.02
67758;BMP180;54562;47.620;18.786;2023-02-26T00:03:49;97268.40;;;2.00
67758;BMP180;54562;47.620;18.786;2023-02-26T00:06:57;97244.60;;;2.00
67758;BMP180;54562;47.620;18.786;2023-02-26T00:10:12;97266.20;;;2.00
67758;BMP180;54562;47.620;18.786;2023-02-26T00:13:21;97252.80;;;2.00
67758;BMP180;54562;47.620;18.786;2023-02-26T00:16:33;97270.20;;;1.90
67758;BMP180;54562;47.620;18.786;2023-02-26T00:19:43;97271.60;;;1.90
67758;BMP180;54562;47.620;18.786;2023-02-26T00:22:52;97285.80;;;1.90
67758;BMP180;54562;47.620;18.786;2023-02-26T00:26:01;97270.60;;;1.82
67758;BMP180;54562;47.620;18.786;2023-02-26T00:29:11;97252.80;;;1.80
67758;BMP180;54562;47.620;18.786;2023-02-26T00:32:20;97221.00;;;1.72
67758;BMP180;54562;47.620;18.786;2023-02-26T00:35:30;97219.60;;;1.70
67758;BMP180;54562;47.620;18.786;2023-02-26T00:38:43;97203.40;;;1.70
67758;BMP180;54562;47.620;18.786;2023-02-26T00:41:55;97209.40;;;1.66
67758;BMP180;54562;47.620;18.786;2023-02-26T00:45:06;97207.40;;;1.60
67758;BMP180;54562;47.620;18.786;2023-02-26T00:48:37;97205.80;;;1.60
67758;BMP180;54562;47.620;18.786;2023-02-26T00:51:54;97179.00;;;1.60
67758;BMP180;54562;47.620;18.786;2023-02-26T00:55:03;97216.60;;;1.54
67758;BMP180;54562;47.620;18.786;2023-02-26T00:58:11;97215.00;;;1.50
67758;BMP180;54562;47.620;18.786;2023-02-26T01:01:20;97231.60;;;1.50
67758;BMP180;54562;47.620;18.786;2023-02-26T01:04:29;97244.60;;;1.50
67758;BMP180;54562;47.620;18.786;2023-02-26T01:07:46;97233.60;;;1.50
67758;BMP180;54562;47.620;18.786;2023-02-26T01:10:55;97250.00;;;1.50
67758;BMP180;54562;47.620;18.786;2023-02-26T01:14:05;97247.60;;;1.50
67758;BMP180;54562;47.620;18.786;2023-02-26T01:17:20;97261.40;;;1.50
67758;BMP180;54562;47.620;18.786;2023-02-26T01:20:37;97266.40;;;1.50
67758;BMP180;54562;47.620;18.786;2023-02-26T01:23:51;97260.80;;;1.50
67758;BMP180;54562;47.620;18.786;2023-02-26T01:27:00;97254.00;;;1.50
67758;BMP180;54562;47.620;18.786;2023-02-26T01:30:12;97256.80;;;1.50
67758;BMP180;54562;47.620;18.786;2023-02-26T01:33:26;97245.40;;;1.50
67758;BMP180;54562;47.620;18.786;2023-02-26T01:36:45;97240.20;;;1.50
67758;BMP180;54562;47.620;18.786;2023-02-26T01:40:27;97235.20;;;1.50
67758;BMP180;54562;47.620;18.786;2023-02-26T01:43:48;97227.60;;;1.50
67758;BMP180;54562;47.620;18.786;2023-02-26T01:47:12;97226.80;;;1.48
67758;BMP180;54562;47.620;18.786;2023-02-26T01:50:26;97232.00;;;1.40
67758;BMP180;54562;47.620;18.786;2023-02-26T01:53:35;97233.00;;;1.40
67758;BMP180;54562;47.620;18.786;2023-02-26T01:56:46;97234.60;;;1.40
67758;BMP180;54562;47.620;18.786;2023-02-26T01:59:56;97236.60;;;1.38
67758;BMP180;54562;47.620;18.786;2023-02-26T02:03:04;97259.60;;;1.32
67758;BMP180;54562;47.620;18.786;2023-02-26T02:06:19;97258.40;;;1.30
67758;BMP180;54562;47.620;18.786;2023-02-26T02:09:28;97256.00;;;1.30
67758;BMP180;54562;47.620;18.786;2023-02-26T02:12:43;97254.00;;;1.30
67758;BMP180;54562;47.620;18.786;2023-02-26T02:16:02;97245.00;;;1.28
67758;BMP180;54562;47.620;18.786;2023-02-26T02:19:58;97240.60;;;1.20
67758;BMP180;54562;47.620;18.786;2023-02-26T02:23:20;97240.00;;;1.20
67758;BMP180;54562;47.620;18.786;2023-02-26T02:27:08;97235.60;;;1.20
67758;BMP180;54562;47.620;18.786;2023-02-26T02:30:36;97244.60;;;1.10
67758;BMP180;54562;47.620;18.786;2023-02-26T02:33:56;97265.20;;;1.10
67758;BMP180;54562;47.620;18.786;2023-02-26T02:37:13;97284.40;;;1.10
67758;BMP180;54562;47.620;18.786;2023-02-26T02:40:28;97292.00;;;1.10
67758;BMP180;54562;47.620;18.786;2023-02-26T02:43:39;97289.80;;;1.10
67758;BMP180;54562;47.620;18.786;2023-02-26T02:46:54;97285.40;;;1.10
67758;BMP180;54562;47.620;18.786;2023-02-26T02:50:08;97291.20;;;1.02
67758;BMP180;54562;47.620;18.786;2023-02-26T02:53:23;97315.80;;;1.00
67758;BMP180;54562;47.620;18.786;2023-02-26T02:56:39;97328.60;;;1.00
67758;BMP180;54562;47.620;18.786;2023-02-26T02:59:55;97334.80;;;1.00
67758;BMP180;54562;47.620;18.786;2023-02-26T03:03:10;97333.40;;;1.00
67758;BMP180;54562;47.620;18.786;2023-02-26T03:06:20;97328.20;;;1.00
67758;BMP180;54562;47.620;18.786;2023-02-26T03:09:28;97340.60;;;0.90
67758;BMP180;54562;47.620;18.786;2023-02-26T03:12:36;97330.20;;;0.90
67758;BMP180;54562;47.620;18.786;2023-02-26T03:15:58;97311.80;;;0.90
67758;BMP180;54562;47.620;18.786;2023-02-26T03:19:17;97310.40;;;0.90
67758;BMP180;54562;47.620;18.786;2023-02-26T03:22:37;97323.40;;;0.84
67758;BMP180;54562;47.620;18.786;2023-02-26T03:25:51;97328.00;;;0.80
67758;BMP180;54562;47.620;18.786;2023-02-26T03:29:11;97332.60;;;0.80
67758;BMP180;54562;47.620;18.786;2023-02-26T03:32:30;97340.20;;;0.80
67758;BMP180;54562;47.620;18.786;2023-02-26T03:35:50;97348.40;;;0.80
67758;BMP180;54562;47.620;18.786;2023-02-26T03:39:04;97353.00;;;0.80
67758;BMP180;54562;47.620;18.786;2023-02-26T03:42:21;97358.00;;;0.80
67758;BMP180;54562;47.620;18.786;2023-02-26T03:45:34;97373.80;;;0.80
67758;BMP180;54562;47.620;18.786;2023-02-26T03:48:46;97395.00;;;0.80
67758;BMP180;54562;47.620;18.786;2023-02-26T03:51:57;97383.40;;;0.80
67758;BMP180;54562;47.620;18.786;2023-02-26T03:55:11;97362.40;;;0.80
67758;BMP180;54562;47.620;18.786;2023-02-26T03:58:20;97388.40;;;0.78
67758;BMP180;54562;47.620;18.786;2023-02-26T04:01:38;97380.00;;;0.72
67758;BMP180;54562;47.620;18.786;2023-02-26T04:04:52;97357.40;;;0.72
67758;BMP180;54562;47.620;18.786;2023-02-26T04:08:01;97332.60;;;0.70
67758;BMP180;54562;47.620;18.786;2023-02-26T04:11:12;97334.20;;;0.72
67758;BMP180;54562;47.620;18.786;2023-02-26T04:14:23;97342.60;;;0.78
67758;BMP180;54562;47.620;18.786;2023-02-26T04:17:31;97371.20;;;0.80
67758;BMP180;54562;47.620;18.786;2023-02-26T04:20:39;97381.80;;;0.84
67758;BMP180;54562;47.620;18.786;2023-02-26T04:23:47;97392.80;;;0.86
67758;BMP180;54562;47.620;18.786;2023-02-26T04:26:55;97388.20;;;0.86
67758;BMP180;54562;47.620;18.786;2023-02-26T04:30:04;97400.60;;;0.80
67758;BMP180;54562;47.620;18.786;2023-02-26T04:33:13;97432.20;;;0.80
67758;BMP180;54562;47.620;18.786;2023-02-26T04:36:21;97427.60;;;0.80
67758;BMP180;54562;47.620;18.786;2023-02-26T04:39:30;97425.40;;;0.80
67758;BMP180;54562;47.620;18.786;2023-02-26T04:42:38;97414.00;;;0.78
67758;BMP180;54562;47.620;18.786;2023-02-26T04:45:47;97404.40;;;0.70
67758;BMP180;54562;47.620;18.786;2023-02-26T04:48:55;97423.80;;;0.70
67758;BMP180;54562;47.620;18.786;2023-02-26T04:52:03;97438.00;;;0.70
67758;BMP180;54562;47.620;18.786;2023-02-26T04:55:12;97441.00;;;0.70
67758;BMP180;54562;47.620;18.786;2023-02-26T04:58:20;97427.20;;;0.68
67758;BMP180;54562;47.620;18.786;2023-02-26T05:01:28;97429.20;;;0.60
67758;BMP180;54562;47.620;18.786;2023-02-26T05:04:36;97434.00;;;0.60
67758;BMP180;54562;47.620;18.786;2023-02-26T05:07:45;97423.60;;;0.60
67758;BMP180;54562;47.620;18.786;2023-02-26T05:10:54;97413.60;;;0.60
67758;BMP180;54562;47.620;18.786;2023-02-26T05:14:02;97401.40;;;0.50
67758;BMP180;54562;47.620;18.786;2023-02-26T05:17:11;97404.00;;;0.50
67758;BMP180;54562;47.620;18.786;2023-02-26T05:20:20;97397.40;;;0.40
67758;BMP180;54562;47.620;18.786;2023-02-26T05:23:28;97399.40;;;0.40
67758;BMP180;54562;47.620;18.786;2023-02-26T05:26:36;97418.00;;;0.40
67758;BMP180;54562;47.620;18.786;2023-02-26T05:29:44;97467.00;;;0.40
67758;BMP180;54562;47.620;18.786;2023-02-26T05:32:52;97472.40;;;0.38
67758;BMP180;54562;47.620;18.786;2023-02-26T05:36:01;97468.60;;;0.38
67758;BMP180;54562;47.620;18.786;2023-02-26T05:39:09;97459.00;;;0.36
67758;BMP180;54562;47.620;18.786;2023-02-26T05:42:18;97457.80;;;0.30
67758;BMP180;54562;47.620;18.786;2023-02-26T05:45:26;97435.00;;;0.30
67758;BMP180;54562;47.620;18.786;2023-02-26T05:48:35;97427.40;;;0.30
67758;BMP180;54562;47.620;18.786;2023-02-26T05:51:43;97462.20;;;0.30
67758;BMP180;54562;47.620;18.786;2023-02-26T05:54:52;97490.60;;;0.30
67758;BMP180;54562;47.620;18.786;2023-02-26T05:58:00;97508.60;;;0.34
67758;BMP180;54562;47.620;18.786;2023-02-26T06:01:09;97502.60;;;0.40
67758;BMP180;54562;47.620;18.786;2023-02-26T06:04:17;97492.60;;;0.40
67758;BMP180;54562;47.620;18.786;2023-02-26T06:07:25;97489.00;;;0.40
67758;BMP180;54562;47.620;18.786;2023-02-26T06:10:33;97493.60;;;0.40
67758;BMP180;54562;47.620;18.786;2023-02-26T06:13:41;97495.20;;;0.40
67758;BMP180;54562;47.620;18.786;2023-02-26T06:16:49;97510.40;;;0.40
67758;BMP180;54562;47.620;18.786;2023-02-26T06:19:57;97524.80;;;0.42
67758;BMP180;54562;47.620;18.786;2023-02-26T06:23:05;97533.20;;;0.50
67758;BMP180;54562;47.620;18.786;2023-02-26T06:26:13;97524.80;;;0.50
67758;BMP180;54562;47.620;18.786;2023-02-26T06:29:22;97530.60;;;0.52
67758;BMP180;54562;47.620;18.786;2023-02-26T06:32:31;97527.40;;;0.60
67758;BMP180;54562;47.620;18.786;2023-02-26T06:35:39;97517.80;;;0.60
67758;BMP180;54562;47.620;18.786;2023-02-26T06:38:48;97516.40;;;0.60
67758;BMP180;54562;47.620;18.786;2023-02-26T06:41:56;97517.60;;;0.60
67758;BMP180;54562;47.620;18.786;2023-02-26T06:45:06;97532.00;;;0.60
67758;BMP180;54562;47.620;18.786;2023-02-26T06:48:14;97577.60;;;0.60
67758;BMP180;54562;47.620;18.786;2023-02-26T06:51:22;97576.80;;;0.70
67758;BMP180;54562;47.620;18.786;2023-02-26T06:54:30;97574.40;;;0.70
67758;BMP180;54562;47.620;18.786;2023-02-26T06:57:39;97562.80;;;0.70
67758;BMP180;54562;47.620;18.786;2023-02-26T07:00:47;97561.80;;;0.72
67758;BMP180;54562;47.620;18.786;2023-02-26T07:03:56;97558.80;;;0.80
67758;BMP180;54562;47.620;18.786;2023-02-26T07:07:04;97548.40;;;0.80
67758;BMP180;54562;47.620;18.786;2023-02-26T07:10:14;97559.60;;;0.80
67758;BMP180;54562;47.620;18.786;2023-02-26T07:13:22;97556.80;;;0.88
67758;BMP180;54562;47.620;18.786;2023-02-26T07:16:31;97548.40;;;0.90
67758;BMP180;54562;47.620;18.786;2023-02-26T07:19:39;97541.20;;;0.96
67758;BMP180;54562;47.620;18.786;2023-02-26T07:22:47;97540.00;;;1.00
67758;BMP180;54562;47.620;18.786;2023-02-26T07:25:55;97568.80;;;1.00
67758;BMP180;54562;47.620;18.786;2023-02-26T07:29:04;97583.60;;;1.04
67758;BMP180;54562;47.620;18.786;2023-02-26T07:32:13;97587.40;;;1.10
67758;BMP180;54562;47.620;18.786;2023-02-26T07:35:21;97585.20;;;1.10
67758;BMP180;54562;47.620;18.786;2023-02-26T07:38:29;97569.40;;;1.20
67758;BMP180;54562;47.620;18.786;2023-02-26T07:41:38;97579.20;;;1.28
67758;BMP180;54562;47.620;18.786;2023-02-26T07:44:46;97571.20;;;1.32
67758;BMP180;54562;47.620;18.786;2023-02-26T07:47:54;97571.00;;;1.40
67758;BMP180;54562;47.620;18.786;2023-02-26T07:51:02;97593.40;;;1.40
67758;BMP180;54562;47.620;18.786;2023-02-26T07:54:10;97597.40;;;1.50
67758;BMP180;54562;47.620;18.786;2023-02-26T07:57:19;97598.20;;;1.50
67758;BMP180;54562;47.620;18.786;2023-02-26T08:00:27;97588.20;;;1.60
67758;BMP180;54562;47.620;18.786;2023-02-26T08:03:36;97600.60;;;1.60
67758;BMP180;54562;47.620;18.786;2023-02-26T08:06:44;97602.40;;;1.70
67758;BMP180;54562;47.620;18.786;2023-02-26T08:09:52;97601.40;;;1.72
67758;BMP180;54562;47.620;18.786;2023-02-26T08:13:00;97589.00;;;1.80
67758;BMP180;54562;47.620;18.786;2023-02-26T08:16:08;97598.20;;;1.80
67758;BMP180;54562;47.620;18.786;2023-02-26T08:19:17;97596.80;;;1.80
67758;BMP180;54562;47.620;18.786;2023-02-26T08:22:24;97591.20;;;1.86
67758;BMP180;54562;47.620;18.786;2023-02-26T08:25:33;97601.00;;;2.00
67758;BMP180;54562;47.620;18.786;2023-02-26T08:28:41;97594.20;;;2.20
67758;BMP180;54562;47.620;18.786;2023-02-26T08:31:49;97595.60;;;2.32
67758;BMP180;54562;47.620;18.786;2023-02-26T08:34:57;97590.80;;;2.50
67758;BMP180;54562;47.620;18.786;2023-02-26T08:38:06;97598.20;;;2.54
67758;BMP180;54562;47.620;18.786;2023-02-26T08:41:14;97615.20;;;2.60
67758;BMP180;54562;47.620;18.786;2023-02-26T08:44:23;97605.60;;;2.60
67758;BMP180;54562;47.620;18.786;2023-02-26T08:47:31;97609.40;;;2.60
67758;BMP180;54562;47.620;18.786;2023-02-26T08:50:45;97614.40;;;2.52
67758;BMP180;54562;47.620;18.786;2023-02-26T08:53:53;97619.80;;;2.50
67758;BMP180;54562;47.620;18.786;2023-02-26T08:57:02;97623.60;;;2.60
67758;BMP180;54562;47.620;18.786;2023-02-26T09:00:14;97617.60;;;2.90
67758;BMP180;54562;47.620;18.786;2023-02-26T09:03:24;97624.20;;;3.00
67758;BMP180;54562;47.620;18.786;2023-02-26T09:06:32;97628.60;;;3.10
67758;BMP180;54562;47.620;18.786;2023-02-26T09:09:40;97630.00;;;3.10
67758;BMP180;54562;47.620;18.786;2023-02-26T09:12:49;97633.60;;;3.10
67758;BMP180;54562;47.620;18.786;2023-02-26T09:15:57;97635.20;;;3.00
67758;BMP180;54562;47.620;18.786;2023-02-26T09:19:06;97643.20;;;3.10
67758;BMP180;54562;47.620;18.786;2023-02-26T09:22:14;97642.60;;;3.10
67758;BMP180;54562;47.620;18.786;2023-02-26T09:25:22;97641.60;;;3.20
67758;BMP180;54562;47.620;18.786;2023-02-26T09:28:31;97639.80;;;3.30
67758;BMP180;54562;47.620;18.786;2023-02-26T09:31:39;97650.20;;;3.48
67758;BMP180;54562;47.620;18.786;2023-02-26T09:34:48;97651.80;;;3.54
67758;BMP180;54562;47.620;18.786;2023-02-26T09:37:56;97652.60;;;3.60
67758;BMP180;54562;47.620;18.786;2023-02-26T09:41:13;97640.40;;;3.76
67758;BMP180;54562;47.620;18.786;2023-02-26T09:44:26;97636.60;;;3.92
67758;BMP180;54562;47.620;18.786;2023-02-26T09:47:41;97643.40;;;4.10
67758;BMP180;54562;47.620;18.786;2023-02-26T09:50:56;97643.60;;;4.22
67758;BMP180;54562;47.620;18.786;2023-02-26T09:54:15;97642.20;;;4.40
67758;BMP180;54562;47.620;18.786;2023-02-26T09:57:31;97635.60;;;4.70
67758;BMP180;54562;47.620;18.786;2023-02-26T10:00:46;97626.40;;;4.80
67758;BMP180;54562;47.620;18.786;2023-02-26T10:04:10;97645.80;;;5.00
67758;BMP180;54562;47.620;18.786;2023-02-26T10:07:34;97641.60;;;5.00
67758;BMP180;54562;47.620;18.786;2023-02-26T10:10:57;97660.60;;;5.00
67758;BMP180;54562;47.620;18.786;2023-02-26T10:18:11;97687.00;;;5.00
67758;BMP180;54562;47.620;18.786;2023-02-26T10:21:27;97692.00;;;5.10
67758;BMP180;54562;47.620;18.786;2023-02-26T10:24:43;97693.20;;;5.10
67758;BMP180;54562;47.620;18.786;2023-02-26T10:28:02;97702.80;;;5.16
67758;BMP180;54562;47.620;18.786;2023-02-26T10:31:26;97706.40;;;5.20
67758;BMP180;54562;47.620;18.786;2023-02-26T10:34:39;97705.40;;;5.20
67758;BMP180;54562;47.620;18.786;2023-02-26T10:37:57;97703.80;;;5.20
67758;BMP180;54562;47.620;18.786;2023-02-26T10:41:11;97710.80;;;5.20
67758;BMP180;54562;47.620;18.786;2023-02-26T10:44:28;97719.00;;;5.20
67758;BMP180;54562;47.620;18.786;2023-02-26T10:47:48;97722.40;;;5.30
67758;BMP180;54562;47.620;18.786;2023-02-26T10:51:05;97723.20;;;5.40
67758;BMP180;54562;47.620;18.786;2023-02-26T10:54:26;97723.20;;;5.40
67758;BMP180;54562;47.620;18.786;2023-02-26T10:57:39;97720.60;;;5.50
67758;BMP180;54562;47.620;18.786;2023-02-26T11:00:53;97732.00;;;5.70
67758;BMP180;54562;47.620;18.786;2023-02-26T11:04:07;97727.20;;;5.90
67758;BMP180;54562;47.620;18.786;2023-02-26T11:07:16;97714.80;;;6.10
67758;BMP180;54562;47.620;18.786;2023-02-26T11:10:27;97713.20;;;6.30
67758;BMP180;54562;47.620;18.786;2023-02-26T11:13:42;97724.80;;;6.40
67758;BMP180;54562;47.620;18.786;2023-02-26T11:16:55;97726.00;;;6.50
67758;BMP180;54562;47.620;18.786;2023-02-26T11:20:14;97719.80;;;6.60
67758;BMP180;54562;47.620;18.786;2023-02-26T11:23:27;97719.80;;;6.62
67758;BMP180;54562;47.620;18.786;2023-02-26T11:26:38;97723.60;;;6.70
67758;BMP180;54562;47.620;18.786;2023-02-26T11:29:56;97729.20;;;6.86
67758;BMP180;54562;47.620;18.786;2023-02-26T11:33:18;97732.80;;;6.90
67758;BMP180;54562;47.620;18.786;2023-02-26T11:36:32;97728.20;;;6.94
67758;BMP180;54562;47.620;18.786;2023-02-26T11:39:41;97727.00;;;6.90
67758;BMP180;54562;47.620;18.786;2023-02-26T11:42:54;97729.40;;;6.80
67758;BMP180;54562;47.620;18.786;2023-02-26T11:46:04;97731.20;;;6.80
67758;BMP180;54562;47.620;18.786;2023-02-26T11:49:15;97725.80;;;6.80
67758;BMP180;54562;47.620;18.786;2023-02-26T11:52:32;97727.00;;;6.80
67758;BMP180;54562;47.620;18.786;2023-02-26T11:55:45;97732.60;;;6.80
67758;BMP180;54562;47.620;18.786;2023-02-26T11:58:56;97731.40;;;6.84
67758;BMP180;54562;47.620;18.786;2023-02-26T12:02:14;97734.40;;;6.90
67758;BMP180;54562;47.620;18.786;2023-02-26T12:05:26;97733.60;;;7.00
67758;BMP180;54562;47.620;18.786;2023-02-26T12:08:37;97733.20;;;7.00
67758;BMP180;54562;47.620;18.786;2023-02-26T12:12:15;97736.80;;;7.00
67758;BMP180;54562;47.620;18.786;2023-02-26T12:15:38;97739.20;;;6.90
67758;BMP180;54562;47.620;18.786;2023-02-26T12:19:07;97740.60;;;6.90
67758;BMP180;54562;47.620;18.786;2023-02-26T12:22:37;97745.40;;;6.90
67758;BMP180;54562;47.620;18.786;2023-02-26T12:26:10;97742.80;;;6.90
67758;BMP180;54562;47.620;18.786;2023-02-26T12:29:49;97746.80;;;6.82
67758;BMP180;54562;47.620;18.786;2023-02-26T12:33:13;97748.40;;;6.80
67758;BMP180;54562;47.620;18.786;2023-02-26T12:36:42;97753.60;;;6.80
67758;BMP180;54562;47.620;18.786;2023-02-26T12:40:07;97759.60;;;6.80
67758;BMP180;54562;47.620;18.786;2023-02-26T12:43:28;97768.20;;;6.80
67758;BMP180;54562;47.620;18.786;2023-02-26T12:46:57;97778.00;;;6.88
67758;BMP180;54562;47.620;18.786;2023-02-26T12:50:41;97775.00;;;6.90
67758;BMP180;54562;47.620;18.786;2023-02-26T12:57:49;97784.00;;;6.90
67758;BMP180;54562;47.620;18.786;2023-02-26T13:01:19;97782.80;;;6.80
67758;BMP180;54562;47.620;18.786;2023-02-26T13:04:50;97790.40;;;6.70
67758;BMP180;54562;47.620;18.786;2023-02-26T13:08:13;97793.40;;;6.60
67758;BMP180;54562;47.620;18.786;2023-02-26T13:11:34;97795.40;;;6.48
67758;BMP180;54562;47.620;18.786;2023-02-26T13:14:57;97793.80;;;6.40
67758;BMP180;54562;47.620;18.786;2023-02-26T13:18:10;97807.40;;;6.30
67758;BMP180;54562;47.620;18.786;2023-02-26T13:21:24;97818.20;;;6.20
67758;BMP180;54562;47.620;18.786;2023-02-26T13:24:39;97811.80;;;6.10
67758;BMP180;54562;47.620;18.786;2023-02-26T13:27:50;97817.60;;;6.00
67758;BMP180;54562;47.620;18.786;2023-02-26T13:31:02;97819.40;;;5.90
67758;BMP180;54562;47.620;18.786;2023-02-26T13:34:17;97824.40;;;5.84
67758;BMP180;54562;47.620;18.786;2023-02-26T13:37:31;97828.40;;;5.80
67758;BMP180;54562;47.620;18.786;2023-02-26T13:40:55;97828.80;;;5.80
67758;BMP180;54562;47.620;18.786;2023-02-26T13:44:22;97837.00;;;5.80
67758;BMP180;54562;47.620;18.786;2023-02-26T13:47:54;97844.20;;;5.80
67758;BMP180;54562;47.620;18.786;2023-02-26T13:51:11;97841.20;;;5.70
67758;BMP180;54562;47.620;18.786;2023-02-26T13:54:40;97844.80;;;5.70
67758;BMP180;54562;47.620;18.786;2023-02-26T13:57:53;97849.00;;;5.66
67758;BMP180;54562;47.620;18.786;2023-02-26T14:01:12;97847.20;;;5.60
67758;BMP180;54562;47.620;18.786;2023-02-26T14:04:29;97857.80;;;5.60
67758;BMP180;54562;47.620;18.786;2023-02-26T14:08:07;97868.40;;;5.60
67758;BMP180;54562;47.620;18.786;2023-02-26T14:11:44;97872.40;;;5.60
67758;BMP180;54562;47.620;18.786;2023-02-26T14:15:25;97881.80;;;5.50
67758;BMP180;54562;47.620;18.786;2023-02-26T14:18:42;97878.40;;;5.40
67758;BMP180;54562;47.620;18.786;2023-02-26T14:22:12;97880.40;;;5.30
67758;BMP180;54562;47.620;18.786;2023-02-26T14:25:31;97890.80;;;5.20
67758;BMP180;54562;47.620;18.786;2023-02-26T14:29:05;97898.40;;;5.20
67758;BMP180;54562;47.620;18.786;2023-02-26T14:32:28;97893.40;;;5.10
67758;BMP180;54562;47.620;18.786;2023-02-26T14:35:41;97893.20;;;5.00
67758;BMP180;54562;47.620;18.786;2023-02-26T14:38:50;97896.80;;;5.00
67758;BMP180;54562;47.620;18.786;2023-02-26T14:42:04;97898.00;;;4.98
67758;BMP180;54562;47.620;18.786;2023-02-26T14:45:28;97903.80;;;4.90
67758;BMP180;54562;47.620;18.786;2023-02-26T14:48:37;97909.00;;;4.90
67758;BMP180;54562;47.620;18.786;2023-02-26T14:52:00;97909.20;;;4.82
67758;BMP180;54562;47.620;18.786;2023-02-26T14:55:37;97916.20;;;4.80
67758;BMP180;54562;47.620;18.786;2023-02-26T14:59:10;97922.20;;;4.80
67758;BMP180;54562;47.620;18.786;2023-02-26T15:02:31;97926.00;;;4.80
67758;BMP180;54562;47.620;18.786;2023-02-26T15:06:02;97926.40;;;4.80
67758;BMP180;54562;47.620;18.786;2023-02-26T15:09:20;97936.40;;;4.80
67758;BMP180;54562;47.620;18.786;2023-02-26T15:12:46;97943.40;;;4.80
67758;BMP180;54562;47.620;18.786;2023-02-26T15:16:03;97951.60;;;4.80
67758;BMP180;54562;47.620;18.786;2023-02-26T15:19:36;97950.80;;;4.80
67758;BMP180;54562;47.620;18.786;2023-02-26T15:23:08;97962.40;;;4.80
67758;BMP180;54562;47.620;18.786;2023-02-26T15:26:24;97963.00;;;4.80
67758;BMP180;54562;47.620;18.786;2023-02-26T15:29:36;97971.80;;;4.80
67758;BMP180;54562;47.620;18.786;2023-02-26T15:32:46;97975.60;;;4.74
67758;BMP180;54562;47.620;18.786;2023-02-26T15:35:58;97973.60;;;4.70
67758;BMP180;54562;47.620;18.786;2023-02-26T15:39:09;97979.20;;;4.70
67758;BMP180;54562;47.620;18.786;2023-02-26T15:42:18;97986.80;;;4.70
67758;BMP180;54562;47.620;18.786;2023-02-26T15:45:32;97991.20;;;4.70
67758;BMP180;54562;47.620;18.786;2023-02-26T15:48:46;97993.20;;;4.60
67758;BMP180;54562;47.620;18.786;2023-02-26T15:51:55;97999.40;;;4.60
67758;BMP180;54562;47.620;18.786;2023-02-26T15:55:09;97999.60;;;4.60
67758;BMP180;54562;47.620;18.786;2023-02-26T15:58:34;98002.80;;;4.60
67758;BMP180;54562;47.620;18.786;2023-02-26T16:01:44;98009.40;;;4.60
67758;BMP180;54562;47.620;18.786;2023-02-26T16:04:52;98019.40;;;4.52
67758;BMP180;54562;47.620;18.786;2023-02-26T16:08:01;98027.00;;;4.50
67758;BMP180;54562;47.620;18.786;2023-02-26T16:11:10;98029.40;;;4.50
67758;BMP180;54562;47.620;18.786;2023-02-26T16:14:23;98030.20;;;4.42
67758;BMP180;54562;47.620;18.786;2023-02-26T16:17:38;98035.00;;;4.40
67758;BMP180;54562;47.620;18.786;2023-02-26T16:20:49;98038.80;;;4.40
67758;BMP180;54562;47.620;18.786;2023-02-26T16:24:02;98038.60;;;4.40
67758;BMP180;54562;47.620;18.786;2023-02-26T16:27:17;98044.60;;;4.40
67758;BMP180;54562;47.620;18.786;2023-02-26T16:30:31;98051.00;;;4.36
67758;BMP180;54562;47.620;18.786;2023-02-26T16:33:40;98053.20;;;4.30
67758;BMP180;54562;47.620;18.786;2023-02-26T16:36:57;98061.20;;;4.30
67758;BMP180;54562;47.620;18.786;2023-02-26T16:40:19;98065.20;;;4.30
67758;BMP180;54562;47.620;18.786;2023-02-26T16:43:47;98074.40;;;4.20
67758;BMP180;54562;47.620;18.786;2023-02-26T16:46:57;98082.20;;;4.20
67758;BMP180;54562;47.620;18.786;2023-02-26T16:50:18;98087.00;;;4.14
67758;BMP180;54562;47.620;18.786;2023-02-26T16:53:36;98081.60;;;4.10
67758;BMP180;54562;47.620;18.786;2023-02-26T16:56:54;98088.80;;;4.00
67758;BMP180;54562;47.620;18.786;2023-02-26T17:00:10;98093.40;;;4.00
67758;BMP180;54562;47.620;18.786;2023-02-26T17:03:27;98102.20;;;3.98
67758;BMP180;54562;47.620;18.786;2023-02-26T17:06:40;98108.20;;;3.90
67758;BMP180;54562;47.620;18.786;2023-02-26T17:09:54;98113.40;;;3.84
67758;BMP180;54562;47.620;18.786;2023-02-26T17:13:16;98107.80;;;3.80
67758;BMP180;54562;47.620;18.786;2023-02-26T17:16:25;98115.80;;;3.70
67758;BMP180;54562;47.620;18.786;2023-02-26T17:19:33;98120.00;;;3.60
67758;BMP180;54562;47.620;18.786;2023-02-26T17:22:43;98125.00;;;3.60
67758;BMP180;54562;47.620;18.786;2023-02-26T17:25:54;98129.40;;;3.50
67758;BMP180;54562;47.620;18.786;2023-02-26T17:29:10;98129.80;;;3.46
67758;BMP180;54562;47.620;18.786;2023-02-26T17:32:25;98133.20;;;3.40
67758;BMP180;54562;47.620;18.786;2023-02-26T17:35:36;98132.80;;;3.30
67758;BMP180;54562;47.620;18.786;2023-02-26T17:38:44;98124.20;;;3.30
67758;BMP180;54562;47.620;18.786;2023-02-26T17:41:54;98130.40;;;3.20
67758;BMP180;54562;47.620;18.786;2023-02-26T17:45:02;98132.60;;;3.20
67758;BMP180;54562;47.620;18.786;2023-02-26T17:48:11;98130.40;;;3.18
67758;BMP180;54562;47.620;18.786;2023-02-26T17:51:20;98125.20;;;3.10
67758;BMP180;54562;47.620;18.786;2023-02-26T17:54:28;98135.40;;;3.10
67758;BMP180;54562;47.620;18.786;2023-02-26T17:57:36;98134.40;;;3.10
67758;BMP180;54562;47.620;18.786;2023-02-26T18:00:45;98129.80;;;3.08
67758;BMP180;54562;47.620;18.786;2023-02-26T18:03:59;98131.60;;;3.04
67758;BMP180;54562;47.620;18.786;2023-02-26T18:07:13;98134.20;;;3.00
67758;BMP180;54562;47.620;18.786;2023-02-26T18:10:25;98134.20;;;3.00
67758;BMP180;54562;47.620;18.786;2023-02-26T18:13:33;98132.40;;;2.98
67758;BMP180;54562;47.620;18.786;2023-02-26T18:16:43;98137.40;;;2.90
67758;BMP180;54562;47.620;18.786;2023-02-26T18:19:52;98140.40;;;2.90
67758;BMP180;54562;47.620;18.786;2023-02-26T18:23:00;98143.00;;;2.90
67758;BMP180;54562;47.620;18.786;2023-02-26T18:26:10;98143.80;;;2.80
67758;BMP180;54562;47.620;18.786;2023-02-26T18:29:18;98146.00;;;2.80
67758;BMP180;54562;47.620;18.786;2023-02-26T18:32:27;98145.40;;;2.70
67758;BMP180;54562;47.620;18.786;2023-02-26T18:35:35;98146.00;;;2.70
67758;BMP180;54562;47.620;18.786;2023-02-26T18:38:44;98150.40;;;2.60
67758;BMP180;54562;47.620;18.786;2023-02-26T18:41:51;98148.40;;;2.60
67758;BMP180;54562;47.620;18.786;2023-02-26T18:45:00;98150.40;;;2.50